sensor_id;sensor_type;location;lat;lon;timestamp;P1;durP1;ratioP1;P2;durP2;ratioP2
9821;SDS011;4950;46.042;14.472;2024-03-08T00:01:15;3.28;;;2.22;;
9821;SDS011;4950;46.042;14.472;2024-03-08T00:03:45;4.28;;;2.13;;
9821;SDS011;4950;46.042;14.472;2024-03-08T00:06:12;3.88;;;2.38;;
9821;SDS011;4950;46.042;14.472;2024-03-08T00:08:39;4.22;;;2.75;;
9821;SDS011;4950;46.042;14.472;2024-03-08T00:11:05;4.15;;;3.05;;
9821;SDS011;4950;46.042;14.472;2024-03-08T00:13:33;5.32;;;3.20;;
9821;SDS011;4950;46.042;14.472;2024-03-08T00:16:00;3.65;;;2.67;;
9821;SDS011;4950;46.042;14.472;2024-03-08T00:18:27;4.75;;;2.90;;
9821;SDS011;4950;46.042;14.472;2024-03-08T00:20:56;4.28;;;2.83;;
9821;SDS011;4950;46.042;14.472;2024-03-08T00:23:22;4.40;;;2.72;;
9821;SDS011;4950;46.042;14.472;2024-03-08T00:25:49;5.60;;;2.65;;
9821;SDS011;4950;46.042;14.472;2024-03-08T00:28:16;4.43;;;3.30;;
9821;SDS011;4950;46.042;14.472;2024-03-08T00:30:44;5.43;;;3.50;;
9821;SDS011;4950;46.042;14.472;2024-03-08T00:33:11;5.60;;;3.30;;
9821;SDS011;4950;46.042;14.472;2024-03-08T00:35:38;7.28;;;4.18;;
9821;SDS011;4950;46.042;14.472;2024-03-08T00:38:06;5.95;;;3.80;;
9821;SDS011;4950;46.042;14.472;2024-03-08T00:40:32;5.47;;;3.60;;
9821;SDS011;4950;46.042;14.472;2024-03-08T00:42:59;5.60;;;3.50;;
9821;SDS011;4950;46.042;14.472;2024-03-08T00:45:28;5.32;;;3.60;;
9821;SDS011;4950;46.042;14.472;2024-03-08T00:47:55;5.72;;;3.90;;
9821;SDS011;4950;46.042;14.472;2024-03-08T00:50:22;4.95;;;3.60;;
9821;SDS011;4950;46.042;14.472;2024-03-08T00:52:49;5.25;;;3.58;;
9821;SDS011;4950;46.042;14.472;2024-03-08T00:55:17;4.78;;;3.20;;
9821;SDS011;4950;46.042;14.472;2024-03-08T00:57:44;6.03;;;3.95;;
9821;SDS011;4950;46.042;14.472;2024-03-08T01:00:11;5.55;;;3.60;;
9821;SDS011;4950;46.042;14.472;2024-03-08T01:02:38;4.97;;;3.15;;
9821;SDS011;4950;46.042;14.472;2024-03-08T01:05:04;8.15;;;3.83;;
9821;SDS011;4950;46.042;14.472;2024-03-08T01:07:32;5.75;;;3.58;;
9821;SDS011;4950;46.042;14.472;2024-03-08T01:09:58;6.32;;;3.90;;
9821;SDS011;4950;46.042;14.472;2024-03-08T01:12:27;4.75;;;3.40;;
9821;SDS011;4950;46.042;14.472;2024-03-08T01:14:55;6.18;;;3.92;;
9821;SDS011;4950;46.042;14.472;2024-03-08T01:17:22;5.65;;;3.78;;
9821;SDS011;4950;46.042;14.472;2024-03-08T01:19:49;6.15;;;3.78;;
9821;SDS011;4950;46.042;14.472;2024-03-08T01:22:16;5.43;;;3.85;;
9821;SDS011;4950;46.042;14.472;2024-03-08T01:24:42;5.72;;;3.80;;
9821;SDS011;4950;46.042;14.472;2024-03-08T01:27:09;5.78;;;3.83;;
9821;SDS011;4950;46.042;14.472;2024-03-08T01:29:38;6.13;;;3.70;;
9821;SDS011;4950;46.042;14.472;2024-03-08T01:32:05;5.13;;;3.72;;
9821;SDS011;4950;46.042;14.472;2024-03-08T01:34:33;5.25;;;4.00;;
9821;SDS011;4950;46.042;14.472;2024-03-08T01:37:00;6.20;;;4.05;;
9821;SDS011;4950;46.042;14.472;2024-03-08T01:39:26;6.60;;;4.13;;
9821;SDS011;4950;46.042;14.472;2024-03-08T01:41:53;5.95;;;4.05;;
9821;SDS011;4950;46.042;14.472;2024-03-08T01:44:20;5.55;;;3.63;;
9821;SDS011;4950;46.042;14.472;2024-03-08T01:46:48;6.22;;;4.10;;
9821;SDS011;4950;46.042;14.472;2024-03-08T01:49:17;6.47;;;4.47;;
9821;SDS011;4950;46.042;14.472;2024-03-08T01:51:46;6.25;;;4.20;;
9821;SDS011;4950;46.042;14.472;2024-03-08T01:54:14;6.13;;;4.22;;
9821;SDS011;4950;46.042;14.472;2024-03-08T01:56:42;8.18;;;3.95;;
9821;SDS011;4950;46.042;14.472;2024-03-08T01:59:09;6.72;;;4.32;;
9821;SDS011;4950;46.042;14.472;2024-03-08T02:01:36;6.13;;;4.10;;
9821;SDS011;4950;46.042;14.472;2024-03-08T02:04:04;7.80;;;4.55;;
9821;SDS011;4950;46.042;14.472;2024-03-08T02:06:32;7.27;;;4.70;;
9821;SDS011;4950;46.042;14.472;2024-03-08T02:08:59;7.53;;;4.65;;
9821;SDS011;4950;46.042;14.472;2024-03-08T02:11:30;7.30;;;4.45;;
9821;SDS011;4950;46.042;14.472;2024-03-08T02:13:57;7.13;;;4.43;;
9821;SDS011;4950;46.042;14.472;2024-03-08T02:16:24;5.65;;;4.05;;
9821;SDS011;4950;46.042;14.472;2024-03-08T02:18:51;6.07;;;4.22;;
9821;SDS011;4950;46.042;14.472;2024-03-08T02:21:19;6.45;;;4.72;;
9821;SDS011;4950;46.042;14.472;2024-03-08T02:23:46;9.65;;;6.00;;
9821;SDS011;4950;46.042;14.472;2024-03-08T02:26:13;14.13;;;6.47;;
9821;SDS011;4950;46.042;14.472;2024-03-08T02:28:40;8.82;;;5.22;;
9821;SDS011;4950;46.042;14.472;2024-03-08T02:31:08;7.63;;;4.85;;
9821;SDS011;4950;46.042;14.472;2024-03-08T02:33:34;6.65;;;4.70;;
9821;SDS011;4950;46.042;14.472;2024-03-08T02:36:01;9.77;;;5.13;;
9821;SDS011;4950;46.042;14.472;2024-03-08T02:38:30;8.23;;;5.32;;
9821;SDS011;4950;46.042;14.472;2024-03-08T02:40:58;7.40;;;5.50;;
9821;SDS011;4950;46.042;14.472;2024-03-08T02:43:24;8.35;;;5.20;;
9821;SDS011;4950;46.042;14.472;2024-03-08T02:45:51;9.95;;;5.18;;
9821;SDS011;4950;46.042;14.472;2024-03-08T02:48:19;7.82;;;5.15;;
9821;SDS011;4950;46.042;14.472;2024-03-08T02:50:46;8.73;;;5.80;;
9821;SDS011;4950;46.042;14.472;2024-03-08T02:53:16;8.88;;;5.60;;
9821;SDS011;4950;46.042;14.472;2024-03-08T02:55:45;8.38;;;5.13;;
9821;SDS011;4950;46.042;14.472;2024-03-08T02:58:12;8.07;;;5.15;;
9821;SDS011;4950;46.042;14.472;2024-03-08T03:00:39;8.23;;;6.35;;
9821;SDS011;4950;46.042;14.472;2024-03-08T03:03:06;8.27;;;5.32;;
9821;SDS011;4950;46.042;14.472;2024-03-08T03:05:33;8.63;;;5.82;;
9821;SDS011;4950;46.042;14.472;2024-03-08T03:08:00;8.07;;;5.32;;
9821;SDS011;4950;46.042;14.472;2024-03-08T03:10:29;8.18;;;5.20;;
9821;SDS011;4950;46.042;14.472;2024-03-08T03:12:57;6.82;;;5.05;;
9821;SDS011;4950;46.042;14.472;2024-03-08T03:15:24;8.40;;;5.80;;
9821;SDS011;4950;46.042;14.472;2024-03-08T03:17:50;9.02;;;5.78;;
9821;SDS011;4950;46.042;14.472;2024-03-08T03:20:17;8.10;;;5.63;;
9821;SDS011;4950;46.042;14.472;2024-03-08T03:22:51;8.18;;;6.00;;
9821;SDS011;4950;46.042;14.472;2024-03-08T03:25:19;7.50;;;5.53;;
9821;SDS011;4950;46.042;14.472;2024-03-08T03:27:51;8.32;;;5.47;;
9821;SDS011;4950;46.042;14.472;2024-03-08T03:30:22;7.72;;;5.63;;
9821;SDS011;4950;46.042;14.472;2024-03-08T03:32:51;8.57;;;5.95;;
9821;SDS011;4950;46.042;14.472;2024-03-08T03:35:21;8.55;;;5.90;;
9821;SDS011;4950;46.042;14.472;2024-03-08T03:37:48;10.00;;;6.23;;
9821;SDS011;4950;46.042;14.472;2024-03-08T03:40:26;9.30;;;6.72;;
9821;SDS011;4950;46.042;14.472;2024-03-08T03:42:53;8.85;;;6.63;;
9821;SDS011;4950;46.042;14.472;2024-03-08T03:45:20;9.38;;;5.93;;
9821;SDS011;4950;46.042;14.472;2024-03-08T03:47:48;10.45;;;6.88;;
9821;SDS011;4950;46.042;14.472;2024-03-08T03:50:15;10.50;;;6.78;;
9821;SDS011;4950;46.042;14.472;2024-03-08T03:52:44;9.45;;;6.15;;
9821;SDS011;4950;46.042;14.472;2024-03-08T03:55:11;8.02;;;5.88;;
9821;SDS011;4950;46.042;14.472;2024-03-08T03:57:38;9.90;;;6.55;;
9821;SDS011;4950;46.042;14.472;2024-03-08T04:00:05;8.98;;;6.57;;
9821;SDS011;4950;46.042;14.472;2024-03-08T04:02:35;10.80;;;6.82;;
9821;SDS011;4950;46.042;14.472;2024-03-08T04:05:04;8.60;;;5.95;;
9821;SDS011;4950;46.042;14.472;2024-03-08T04:07:31;12.25;;;6.75;;
9821;SDS011;4950;46.042;14.472;2024-03-08T04:09:58;10.05;;;7.05;;
9821;SDS011;4950;46.042;14.472;2024-03-08T04:12:25;10.85;;;7.63;;
9821;SDS011;4950;46.042;14.472;2024-03-08T04:14:51;10.13;;;7.55;;
9821;SDS011;4950;46.042;14.472;2024-03-08T04:17:18;10.57;;;7.00;;
9821;SDS011;4950;46.042;14.472;2024-03-08T04:19:45;10.60;;;6.95;;
9821;SDS011;4950;46.042;14.472;2024-03-08T04:22:15;9.98;;;7.30;;
9821;SDS011;4950;46.042;14.472;2024-03-08T04:24:41;10.48;;;7.63;;
9821;SDS011;4950;46.042;14.472;2024-03-08T04:27:08;11.60;;;7.35;;
9821;SDS011;4950;46.042;14.472;2024-03-08T04:29:35;9.63;;;6.78;;
9821;SDS011;4950;46.042;14.472;2024-03-08T04:32:02;10.70;;;7.72;;
9821;SDS011;4950;46.042;14.472;2024-03-08T04:34:30;10.95;;;7.82;;
9821;SDS011;4950;46.042;14.472;2024-03-08T04:36:56;10.75;;;7.93;;
9821;SDS011;4950;46.042;14.472;2024-03-08T04:39:25;11.75;;;7.93;;
9821;SDS011;4950;46.042;14.472;2024-03-08T04:41:53;13.75;;;7.40;;
9821;SDS011;4950;46.042;14.472;2024-03-08T04:44:21;12.10;;;7.40;;
9821;SDS011;4950;46.042;14.472;2024-03-08T04:46:49;10.43;;;7.40;;
9821;SDS011;4950;46.042;14.472;2024-03-08T04:49:16;12.70;;;9.18;;
9821;SDS011;4950;46.042;14.472;2024-03-08T04:51:42;12.25;;;8.27;;
9821;SDS011;4950;46.042;14.472;2024-03-08T04:54:10;12.23;;;8.38;;
9821;SDS011;4950;46.042;14.472;2024-03-08T04:56:38;14.18;;;9.40;;
9821;SDS011;4950;46.042;14.472;2024-03-08T04:59:05;13.37;;;8.47;;
9821;SDS011;4950;46.042;14.472;2024-03-08T05:01:33;14.48;;;9.27;;
9821;SDS011;4950;46.042;14.472;2024-03-08T05:06:29;13.18;;;8.75;;
9821;SDS011;4950;46.042;14.472;2024-03-08T05:08:56;14.68;;;9.00;;
9821;SDS011;4950;46.042;14.472;2024-03-08T05:11:22;13.93;;;9.20;;
9821;SDS011;4950;46.042;14.472;2024-03-08T05:13:50;13.43;;;8.95;;
9821;SDS011;4950;46.042;14.472;2024-03-08T05:16:17;12.10;;;8.82;;
9821;SDS011;4950;46.042;14.472;2024-03-08T05:18:44;14.77;;;9.43;;
9821;SDS011;4950;46.042;14.472;2024-03-08T05:21:12;15.45;;;9.77;;
9821;SDS011;4950;46.042;14.472;2024-03-08T05:23:38;13.98;;;9.32;;
9821;SDS011;4950;46.042;14.472;2024-03-08T05:26:05;14.52;;;9.13;;
9821;SDS011;4950;46.042;14.472;2024-03-08T05:28:32;13.98;;;9.45;;
9821;SDS011;4950;46.042;14.472;2024-03-08T05:31:00;14.90;;;9.77;;
9821;SDS011;4950;46.042;14.472;2024-03-08T05:33:27;14.90;;;9.57;;
9821;SDS011;4950;46.042;14.472;2024-03-08T05:35:54;13.45;;;9.63;;
9821;SDS011;4950;46.042;14.472;2024-03-08T05:38:20;12.57;;;9.07;;
9821;SDS011;4950;46.042;14.472;2024-03-08T05:40:47;13.75;;;9.77;;
9821;SDS011;4950;46.042;14.472;2024-03-08T05:43:14;13.57;;;10.18;;
9821;SDS011;4950;46.042;14.472;2024-03-08T05:45:42;14.10;;;10.10;;
9821;SDS011;4950;46.042;14.472;2024-03-08T05:48:10;14.20;;;10.40;;
9821;SDS011;4950;46.042;14.472;2024-03-08T05:50:38;14.98;;;9.55;;
9821;SDS011;4950;46.042;14.472;2024-03-08T05:53:04;14.93;;;9.95;;
9821;SDS011;4950;46.042;14.472;2024-03-08T05:55:31;14.52;;;9.57;;
9821;SDS011;4950;46.042;14.472;2024-03-08T05:58:00;13.68;;;9.68;;
9821;SDS011;4950;46.042;14.472;2024-03-08T06:00:27;14.60;;;9.50;;
9821;SDS011;4950;46.042;14.472;2024-03-08T06:02:53;18.38;;;10.52;;
9821;SDS011;4950;46.042;14.472;2024-03-08T06:05:22;17.33;;;10.70;;
9821;SDS011;4950;46.042;14.472;2024-03-08T06:07:50;13.68;;;9.57;;
9821;SDS011;4950;46.042;14.472;2024-03-08T06:10:18;15.55;;;10.15;;
9821;SDS011;4950;46.042;14.472;2024-03-08T06:12:48;14.57;;;9.95;;
9821;SDS011;4950;46.042;14.472;2024-03-08T06:15:15;16.65;;;9.85;;
9821;SDS011;4950;46.042;14.472;2024-03-08T06:17:42;13.52;;;9.40;;
9821;SDS011;4950;46.042;14.472;2024-03-08T06:20:09;14.52;;;9.07;;
9821;SDS011;4950;46.042;14.472;2024-03-08T06:22:39;14.55;;;9.43;;
9821;SDS011;4950;46.042;14.472;2024-03-08T06:25:07;14.13;;;9.88;;
9821;SDS011;4950;46.042;14.472;2024-03-08T06:27:35;15.10;;;11.52;;
9821;SDS011;4950;46.042;14.472;2024-03-08T06:30:01;18.63;;;11.02;;
9821;SDS011;4950;46.042;14.472;2024-03-08T06:32:29;15.15;;;8.80;;
9821;SDS011;4950;46.042;14.472;2024-03-08T06:34:58;12.73;;;8.75;;
9821;SDS011;4950;46.042;14.472;2024-03-08T06:37:24;16.05;;;10.73;;
9821;SDS011;4950;46.042;14.472;2024-03-08T06:39:52;15.65;;;10.75;;
9821;SDS011;4950;46.042;14.472;2024-03-08T06:42:20;19.35;;;13.10;;
9821;SDS011;4950;46.042;14.472;2024-03-08T06:44:47;22.75;;;13.85;;
9821;SDS011;4950;46.042;14.472;2024-03-08T06:47:15;25.73;;;16.17;;
9821;SDS011;4950;46.042;14.472;2024-03-08T06:49:42;30.38;;;18.60;;
9821;SDS011;4950;46.042;14.472;2024-03-08T06:52:09;17.67;;;11.25;;
9821;SDS011;4950;46.042;14.472;2024-03-08T06:54:35;13.85;;;9.52;;
9821;SDS011;4950;46.042;14.472;2024-03-08T06:57:04;13.50;;;9.27;;
9821;SDS011;4950;46.042;14.472;2024-03-08T06:59:31;13.23;;;9.38;;
9821;SDS011;4950;46.042;14.472;2024-03-08T07:01:58;18.98;;;12.50;;
9821;SDS011;4950;46.042;14.472;2024-03-08T07:04:25;19.10;;;13.00;;
9821;SDS011;4950;46.042;14.472;2024-03-08T07:06:54;17.33;;;12.50;;
9821;SDS011;4950;46.042;14.472;2024-03-08T07:09:22;20.42;;;12.13;;
9821;SDS011;4950;46.042;14.472;2024-03-08T07:11:49;17.20;;;10.85;;
9821;SDS011;4950;46.042;14.472;2024-03-08T07:14:21;18.40;;;10.23;;
9821;SDS011;4950;46.042;14.472;2024-03-08T07:16:48;17.42;;;11.25;;
9821;SDS011;4950;46.042;14.472;2024-03-08T07:19:15;16.35;;;11.18;;
9821;SDS011;4950;46.042;14.472;2024-03-08T07:21:42;16.60;;;10.95;;
9821;SDS011;4950;46.042;14.472;2024-03-08T07:24:09;14.43;;;10.82;;
9821;SDS011;4950;46.042;14.472;2024-03-08T07:26:52;15.70;;;10.70;;
9821;SDS011;4950;46.042;14.472;2024-03-08T07:29:21;16.83;;;10.85;;
9821;SDS011;4950;46.042;14.472;2024-03-08T07:31:48;18.88;;;10.07;;
9821;SDS011;4950;46.042;14.472;2024-03-08T07:34:26;15.30;;;11.25;;
9821;SDS011;4950;46.042;14.472;2024-03-08T07:36:53;15.25;;;11.02;;
9821;SDS011;4950;46.042;14.472;2024-03-08T07:39:21;15.75;;;10.55;;
9821;SDS011;4950;46.042;14.472;2024-03-08T07:41:48;16.27;;;10.65;;
9821;SDS011;4950;46.042;14.472;2024-03-08T07:44:17;16.60;;;10.95;;
9821;SDS011;4950;46.042;14.472;2024-03-08T07:46:45;16.38;;;10.45;;
9821;SDS011;4950;46.042;14.472;2024-03-08T07:49:12;15.23;;;11.00;;
9821;SDS011;4950;46.042;14.472;2024-03-08T07:51:40;15.93;;;11.35;;
9821;SDS011;4950;46.042;14.472;2024-03-08T07:54:06;21.13;;;12.40;;
9821;SDS011;4950;46.042;14.472;2024-03-08T07:56:34;20.92;;;14.38;;
9821;SDS011;4950;46.042;14.472;2024-03-08T07:59:01;21.50;;;14.48;;
9821;SDS011;4950;46.042;14.472;2024-03-08T08:01:29;20.27;;;13.50;;
9821;SDS011;4950;46.042;14.472;2024-03-08T08:03:57;21.60;;;13.70;;
9821;SDS011;4950;46.042;14.472;2024-03-08T08:06:24;19.65;;;13.50;;
9821;SDS011;4950;46.042;14.472;2024-03-08T08:08:50;18.17;;;12.88;;
9821;SDS011;4950;46.042;14.472;2024-03-08T08:11:18;23.02;;;14.25;;
9821;SDS011;4950;46.042;14.472;2024-03-08T08:13:45;20.20;;;12.75;;
9821;SDS011;4950;46.042;14.472;2024-03-08T08:16:12;22.67;;;14.50;;
9821;SDS011;4950;46.042;14.472;2024-03-08T08:18:39;19.63;;;13.95;;
9821;SDS011;4950;46.042;14.472;2024-03-08T08:21:07;19.23;;;14.07;;
9821;SDS011;4950;46.042;14.472;2024-03-08T08:23:35;22.77;;;15.25;;
9821;SDS011;4950;46.042;14.472;2024-03-08T08:26:03;20.10;;;12.75;;
9821;SDS011;4950;46.042;14.472;2024-03-08T08:28:29;21.17;;;13.60;;
9821;SDS011;4950;46.042;14.472;2024-03-08T08:30:56;22.02;;;14.32;;
9821;SDS011;4950;46.042;14.472;2024-03-08T08:33:24;21.67;;;15.10;;
9821;SDS011;4950;46.042;14.472;2024-03-08T08:35:52;24.05;;;14.63;;
9821;SDS011;4950;46.042;14.472;2024-03-08T08:38:20;20.67;;;14.40;;
9821;SDS011;4950;46.042;14.472;2024-03-08T08:40:48;20.88;;;14.50;;
9821;SDS011;4950;46.042;14.472;2024-03-08T08:43:15;23.02;;;14.70;;
9821;SDS011;4950;46.042;14.472;2024-03-08T08:45:42;23.10;;;15.43;;
9821;SDS011;4950;46.042;14.472;2024-03-08T08:48:09;25.67;;;15.70;;
9821;SDS011;4950;46.042;14.472;2024-03-08T08:50:36;20.35;;;14.23;;
9821;SDS011;4950;46.042;14.472;2024-03-08T08:53:04;21.90;;;13.82;;
9821;SDS011;4950;46.042;14.472;2024-03-08T08:55:33;20.42;;;14.55;;
9821;SDS011;4950;46.042;14.472;2024-03-08T08:58:01;22.42;;;15.00;;
9821;SDS011;4950;46.042;14.472;2024-03-08T09:00:28;19.63;;;13.93;;
9821;SDS011;4950;46.042;14.472;2024-03-08T09:02:56;24.05;;;14.68;;
9821;SDS011;4950;46.042;14.472;2024-03-08T09:05:23;21.48;;;14.60;;
9821;SDS011;4950;46.042;14.472;2024-03-08T09:07:51;21.63;;;15.77;;
9821;SDS011;4950;46.042;14.472;2024-03-08T09:10:18;24.45;;;16.80;;
9821;SDS011;4950;46.042;14.472;2024-03-08T09:12:46;22.02;;;15.38;;
9821;SDS011;4950;46.042;14.472;2024-03-08T09:15:12;23.15;;;16.05;;
9821;SDS011;4950;46.042;14.472;2024-03-08T09:17:40;21.63;;;14.90;;
9821;SDS011;4950;46.042;14.472;2024-03-08T09:20:08;22.60;;;15.25;;
9821;SDS011;4950;46.042;14.472;2024-03-08T09:22:39;21.02;;;15.00;;
9821;SDS011;4950;46.042;14.472;2024-03-08T09:25:06;20.92;;;14.88;;
9821;SDS011;4950;46.042;14.472;2024-03-08T09:27:34;22.67;;;14.82;;
9821;SDS011;4950;46.042;14.472;2024-03-08T09:30:03;24.73;;;16.45;;
9821;SDS011;4950;46.042;14.472;2024-03-08T09:32:32;25.33;;;14.65;;
9821;SDS011;4950;46.042;14.472;2024-03-08T09:34:58;22.80;;;15.15;;
9821;SDS011;4950;46.042;14.472;2024-03-08T09:37:26;21.73;;;15.25;;
9821;SDS011;4950;46.042;14.472;2024-03-08T09:39:52;22.98;;;13.93;;
9821;SDS011;4950;46.042;14.472;2024-03-08T09:42:19;24.67;;;15.52;;
9821;SDS011;4950;46.042;14.472;2024-03-08T09:44:46;22.67;;;15.30;;
9821;SDS011;4950;46.042;14.472;2024-03-08T09:47:14;26.08;;;16.15;;
9821;SDS011;4950;46.042;14.472;2024-03-08T09:49:41;23.60;;;15.45;;
9821;SDS011;4950;46.042;14.472;2024-03-08T09:52:09;21.73;;;15.48;;
9821;SDS011;4950;46.042;14.472;2024-03-08T09:54:37;24.40;;;15.30;;
9821;SDS011;4950;46.042;14.472;2024-03-08T09:57:04;30.00;;;16.67;;
9821;SDS011;4950;46.042;14.472;2024-03-08T09:59:34;23.75;;;16.33;;
9821;SDS011;4950;46.042;14.472;2024-03-08T10:02:17;25.88;;;16.23;;
9821;SDS011;4950;46.042;14.472;2024-03-08T10:04:44;27.52;;;16.65;;
9821;SDS011;4950;46.042;14.472;2024-03-08T10:07:14;30.08;;;16.60;;
9821;SDS011;4950;46.042;14.472;2024-03-08T10:09:40;22.73;;;16.23;;
9821;SDS011;4950;46.042;14.472;2024-03-08T10:12:12;26.25;;;16.92;;
9821;SDS011;4950;46.042;14.472;2024-03-08T10:14:39;29.30;;;16.10;;
9821;SDS011;4950;46.042;14.472;2024-03-08T10:17:07;24.45;;;15.98;;
9821;SDS011;4950;46.042;14.472;2024-03-08T10:19:35;27.70;;;17.38;;
9821;SDS011;4950;46.042;14.472;2024-03-08T10:22:02;29.13;;;18.98;;
9821;SDS011;4950;46.042;14.472;2024-03-08T10:24:29;33.13;;;21.25;;
9821;SDS011;4950;46.042;14.472;2024-03-08T10:26:58;31.02;;;19.45;;
9821;SDS011;4950;46.042;14.472;2024-03-08T10:29:26;25.00;;;16.23;;
9821;SDS011;4950;46.042;14.472;2024-03-08T10:31:54;27.30;;;16.98;;
9821;SDS011;4950;46.042;14.472;2024-03-08T10:34:22;29.60;;;16.17;;
9821;SDS011;4950;46.042;14.472;2024-03-08T10:36:51;22.65;;;15.63;;
9821;SDS011;4950;46.042;14.472;2024-03-08T10:39:21;25.97;;;17.00;;
9821;SDS011;4950;46.042;14.472;2024-03-08T10:41:51;24.13;;;16.98;;
9821;SDS011;4950;46.042;14.472;2024-03-08T10:44:24;21.83;;;15.27;;
9821;SDS011;4950;46.042;14.472;2024-03-08T10:47:08;21.92;;;14.43;;
9821;SDS011;4950;46.042;14.472;2024-03-08T10:49:46;20.67;;;14.77;;
9821;SDS011;4950;46.042;14.472;2024-03-08T10:52:20;21.55;;;14.80;;
9821;SDS011;4950;46.042;14.472;2024-03-08T10:54:47;20.80;;;14.63;;
9821;SDS011;4950;46.042;14.472;2024-03-08T10:57:14;21.35;;;14.60;;
9821;SDS011;4950;46.042;14.472;2024-03-08T11:02:11;20.75;;;14.02;;
9821;SDS011;4950;46.042;14.472;2024-03-08T11:04:38;22.98;;;14.77;;
9821;SDS011;4950;46.042;14.472;2024-03-08T11:07:05;22.95;;;13.82;;
9821;SDS011;4950;46.042;14.472;2024-03-08T11:09:35;24.05;;;13.82;;
9821;SDS011;4950;46.042;14.472;2024-03-08T11:12:19;18.45;;;12.45;;
9821;SDS011;4950;46.042;14.472;2024-03-08T11:14:54;19.77;;;12.50;;
9821;SDS011;4950;46.042;14.472;2024-03-08T11:17:27;18.52;;;12.32;;
9821;SDS011;4950;46.042;14.472;2024-03-08T11:20:10;17.42;;;11.88;;
9821;SDS011;4950;46.042;14.472;2024-03-08T11:22:49;17.02;;;12.30;;
9821;SDS011;4950;46.042;14.472;2024-03-08T11:28:06;16.80;;;12.85;;
9821;SDS011;4950;46.042;14.472;2024-03-08T11:30:41;17.33;;;11.88;;
9821;SDS011;4950;46.042;14.472;2024-03-08T11:33:10;19.95;;;13.57;;
9821;SDS011;4950;46.042;14.472;2024-03-08T11:35:38;17.83;;;11.93;;
9821;SDS011;4950;46.042;14.472;2024-03-08T11:38:05;17.92;;;12.63;;
9821;SDS011;4950;46.042;14.472;2024-03-08T11:40:34;17.33;;;11.63;;
9821;SDS011;4950;46.042;14.472;2024-03-08T11:43:04;17.77;;;12.65;;
9821;SDS011;4950;46.042;14.472;2024-03-08T11:45:32;17.63;;;11.93;;
9821;SDS011;4950;46.042;14.472;2024-03-08T11:48:01;19.88;;;12.63;;
9821;SDS011;4950;46.042;14.472;2024-03-08T11:50:28;20.83;;;13.23;;
9821;SDS011;4950;46.042;14.472;2024-03-08T11:53:00;19.45;;;13.65;;
9821;SDS011;4950;46.042;14.472;2024-03-08T11:55:27;19.83;;;13.55;;
9821;SDS011;4950;46.042;14.472;2024-03-08T11:57:59;20.48;;;12.63;;
9821;SDS011;4950;46.042;14.472;2024-03-08T12:00:27;19.17;;;13.55;;
9821;SDS011;4950;46.042;14.472;2024-03-08T12:03:04;18.67;;;12.98;;
9821;SDS011;4950;46.042;14.472;2024-03-08T12:05:32;28.00;;;18.48;;
9821;SDS011;4950;46.042;14.472;2024-03-08T12:07:59;24.70;;;16.42;;
9821;SDS011;4950;46.042;14.472;2024-03-08T12:10:26;23.38;;;15.63;;
9821;SDS011;4950;46.042;14.472;2024-03-08T12:12:54;21.40;;;13.77;;
9821;SDS011;4950;46.042;14.472;2024-03-08T12:15:21;19.77;;;13.75;;
9821;SDS011;4950;46.042;14.472;2024-03-08T12:17:51;17.73;;;12.32;;
9821;SDS011;4950;46.042;14.472;2024-03-08T12:20:21;20.40;;;13.50;;
9821;SDS011;4950;46.042;14.472;2024-03-08T12:22:50;19.27;;;13.88;;
9821;SDS011;4950;46.042;14.472;2024-03-08T12:25:18;18.50;;;13.30;;
9821;SDS011;4950;46.042;14.472;2024-03-08T12:27:46;22.15;;;14.20;;
9821;SDS011;4950;46.042;14.472;2024-03-08T12:30:17;19.13;;;14.00;;
9821;SDS011;4950;46.042;14.472;2024-03-08T12:32:52;20.63;;;13.77;;
9821;SDS011;4950;46.042;14.472;2024-03-08T12:35:21;20.63;;;13.57;;
9821;SDS011;4950;46.042;14.472;2024-03-08T12:37:50;19.25;;;13.35;;
9821;SDS011;4950;46.042;14.472;2024-03-08T12:40:18;20.83;;;14.03;;
9821;SDS011;4950;46.042;14.472;2024-03-08T12:42:46;20.02;;;14.27;;
9821;SDS011;4950;46.042;14.472;2024-03-08T12:45:13;18.33;;;13.75;;
9821;SDS011;4950;46.042;14.472;2024-03-08T12:47:40;20.60;;;14.15;;
9821;SDS011;4950;46.042;14.472;2024-03-08T12:50:10;21.00;;;14.52;;
9821;SDS011;4950;46.042;14.472;2024-03-08T12:52:37;19.33;;;13.48;;
9821;SDS011;4950;46.042;14.472;2024-03-08T12:55:04;21.98;;;15.35;;
9821;SDS011;4950;46.042;14.472;2024-03-08T12:57:32;21.05;;;14.95;;
9821;SDS011;4950;46.042;14.472;2024-03-08T13:00:00;21.23;;;14.80;;
9821;SDS011;4950;46.042;14.472;2024-03-08T13:02:27;20.20;;;14.32;;
9821;SDS011;4950;46.042;14.472;2024-03-08T13:04:55;21.33;;;14.75;;
9821;SDS011;4950;46.042;14.472;2024-03-08T13:07:24;19.15;;;13.70;;
9821;SDS011;4950;46.042;14.472;2024-03-08T13:09:52;20.88;;;14.98;;
9821;SDS011;4950;46.042;14.472;2024-03-08T13:12:19;20.83;;;13.93;;
9821;SDS011;4950;46.042;14.472;2024-03-08T13:14:46;20.02;;;13.82;;
9821;SDS011;4950;46.042;14.472;2024-03-08T13:17:13;19.63;;;12.55;;
9821;SDS011;4950;46.042;14.472;2024-03-08T13:19:40;20.17;;;13.30;;
9821;SDS011;4950;46.042;14.472;2024-03-08T13:22:07;20.05;;;13.77;;
9821;SDS011;4950;46.042;14.472;2024-03-08T13:24:39;20.15;;;14.32;;
9821;SDS011;4950;46.042;14.472;2024-03-08T13:27:07;22.45;;;14.75;;
9821;SDS011;4950;46.042;14.472;2024-03-08T13:29:44;21.45;;;15.25;;
9821;SDS011;4950;46.042;14.472;2024-03-08T13:32:12;22.55;;;15.48;;
9821;SDS011;4950;46.042;14.472;2024-03-08T13:34:40;22.02;;;15.05;;
9821;SDS011;4950;46.042;14.472;2024-03-08T13:37:07;21.65;;;15.40;;
9821;SDS011;4950;46.042;14.472;2024-03-08T13:39:35;21.45;;;14.85;;
9821;SDS011;4950;46.042;14.472;2024-03-08T13:42:07;21.33;;;14.10;;
9821;SDS011;4950;46.042;14.472;2024-03-08T13:44:35;18.42;;;13.65;;
9821;SDS011;4950;46.042;14.472;2024-03-08T13:47:02;19.17;;;12.45;;
9821;SDS011;4950;46.042;14.472;2024-03-08T13:49:30;17.40;;;11.75;;
9821;SDS011;4950;46.042;14.472;2024-03-08T13:51:58;16.67;;;12.75;;
9821;SDS011;4950;46.042;14.472;2024-03-08T13:54:25;18.85;;;13.48;;
9821;SDS011;4950;46.042;14.472;2024-03-08T13:56:52;24.30;;;13.50;;
9821;SDS011;4950;46.042;14.472;2024-03-08T13:59:21;21.00;;;14.52;;
9821;SDS011;4950;46.042;14.472;2024-03-08T14:01:48;22.05;;;15.10;;
9821;SDS011;4950;46.042;14.472;2024-03-08T14:04:15;20.50;;;13.77;;
9821;SDS011;4950;46.042;14.472;2024-03-08T14:06:42;19.25;;;14.13;;
9821;SDS011;4950;46.042;14.472;2024-03-08T14:09:10;25.67;;;16.38;;
9821;SDS011;4950;46.042;14.472;2024-03-08T14:11:41;24.52;;;16.23;;
9821;SDS011;4950;46.042;14.472;2024-03-08T14:14:09;20.48;;;15.30;;
9821;SDS011;4950;46.042;14.472;2024-03-08T14:16:38;20.17;;;14.65;;
9821;SDS011;4950;46.042;14.472;2024-03-08T14:19:05;20.55;;;15.00;;
9821;SDS011;4950;46.042;14.472;2024-03-08T14:21:35;21.90;;;14.68;;
9821;SDS011;4950;46.042;14.472;2024-03-08T14:24:04;20.98;;;14.65;;
9821;SDS011;4950;46.042;14.472;2024-03-08T14:26:31;20.67;;;13.63;;
9821;SDS011;4950;46.042;14.472;2024-03-08T14:28:59;19.80;;;14.13;;
9821;SDS011;4950;46.042;14.472;2024-03-08T14:31:26;20.25;;;13.70;;
9821;SDS011;4950;46.042;14.472;2024-03-08T14:33:54;21.23;;;14.48;;
9821;SDS011;4950;46.042;14.472;2024-03-08T14:36:22;25.38;;;15.73;;
9821;SDS011;4950;46.042;14.472;2024-03-08T14:38:50;20.48;;;14.32;;
9821;SDS011;4950;46.042;14.472;2024-03-08T14:41:18;21.35;;;14.55;;
9821;SDS011;4950;46.042;14.472;2024-03-08T14:43:45;21.27;;;14.40;;
9821;SDS011;4950;46.042;14.472;2024-03-08T14:46:12;20.58;;;14.30;;
9821;SDS011;4950;46.042;14.472;2024-03-08T14:51:10;20.48;;;13.30;;
9821;SDS011;4950;46.042;14.472;2024-03-08T14:53:39;21.98;;;15.13;;
9821;SDS011;4950;46.042;14.472;2024-03-08T14:56:06;20.60;;;15.18;;
9821;SDS011;4950;46.042;14.472;2024-03-08T14:58:34;20.48;;;14.02;;